Grand Rapids, MN

9:02 PM CST on December 05, 2016 (GMT -0600)
Southwest | | Change Station
Active Advisory: Winter Weather Advisory

Elev 1322 ft 47.23 °N, 93.54 °W | Updated 2 minutes ago

Light Rain
Light Rain
33.3 °F
Feels Like 33 °F
N
0.0
Wind Variable Wind from SE
Gusts 9.8 mph

Today
High -- | Low -- °F
--% Chance of Precip.
Yesterday
High -- | Low -- °F
Precip. -- in
Pressure 29.62 in
Visibility 8.0 miles
Clouds Overcast 700 ft
Windchill 33 °F
Dew Point 33 °F
Humidity 99%
Rainfall 0.04 in
Snow Depth Not available.
7:45 AM 4:24 PM
Waxing Crescent, 37% visible
METAR KGPZ 060256Z AUTO 13011G15KT 8SM -RA OVC007 01/M01 A2957 RMK AO2 RAB05E36B56UPB55E56SNE05B36E55 SLP030 P0000 60008 T00061006 58018 FZRANO
Pressure 29.62 in
Visibility 8.0 miles
Clouds Overcast 700 ft
Windchill 33 °F
Dew Point 33 °F
Humidity 99%
Rainfall 0.04 in
Snow Depth Not available.
7:45 AM 4:24 PM
Waxing Crescent, 37% visible
METAR KGPZ 060256Z AUTO 13011G15KT 8SM -RA OVC007 01/M01 A2957 RMK AO2 RAB05E36B56UPB55E56SNE05B36E55 SLP030 P0000 60008 T00061006 58018 FZRANO

10-Day Weather Forecast

Almanac

Astronomy

Dec. 05, 2016 Rise Set
Actual Time
Civil Twilight
Nautical Twilight
Astronomical Twilight
Moon
Length of Visible Light
Length of Day
Tomorrow will be .
, % of the Moon is Illuminated

Today's Extremes

State Highs State Lows

Community

WunderPhotos

Upload Photos

1,955,900 photos uploaded!

WunderBlog® & News

Nearby

Air Quality

  Air Quality AQ Index Pollutant
Not available.

Snow Depth

Station Depth Elevation

Earthquake Activity

City Distance Mag. Time & Date
Minimum magnitude displayed is 2.5.

Coastal Water Temperatures

Place Temperature

Stations

Nearby Weather Stations

Station Location Temp. Windchill Dew Point Humidity Wind Precip. Elev Updated Type
                   

Watches & Warnings

Winter Weather Advisory
Issued: 2:15 PM CST Dec. 5, 2016 – National Weather Service

... Winter Weather Advisory remains in effect from 6 PM this
evening to 6 am CST Tuesday...

* locations... north central to northeast Minnesota including
much of the Iron Range to the international border.

* Timing... 6 PM this evening through 6 am Tuesday.

* Snow accumulations... 3 to 6 inches.

* Visibilities... as low as a half mile at times tonight.

* Impacts... a period of moderate to heavy snow this evening into
tonight will result in poor visibility and snow-packed roads.

Precautionary/preparedness actions...

A Winter Weather Advisory for snow means that accumulating snow
will cause travel difficulties. Be prepared for snow covered
roads and reduced visibility... and use caution while driving.
Allow extra time to reach your destination.